Time;durP1;ratioP1;P1;durP2;ratioP2;P2;SDS_P1;SDS_P2;PMS_P1;PMS_P2;Temp;Humidity;BMP_temperature;BMP_pressure;BME280_temperature;BME280_humidity;BME280_pressure;Samples;Min_cycle;Max_cycle;Signal;HPM_P1;HPM_P2
2022/04/04 00:01:17;;;;;;;12.02;7.63;;;;;;;-1.89;88.03;96988.13;4975717;28;20054;-64
2022/04/04 00:03:43;;;;;;;12.88;6.50;;;;;;;-1.92;87.61;96977.94;4978615;28;20039;-64
2022/04/04 00:06:09;;;;;;;12.60;6.80;;;;;;;-1.97;88.26;96978.78;4976115;28;20042;-64
2022/04/04 00:08:34;;;;;;;10.55;6.90;;;;;;;-1.99;88.62;96972.88;4981256;28;20096;-65
2022/04/04 00:11:00;;;;;;;11.70;6.95;;;;;;;-2.01;88.83;96974.25;4981070;28;20050;-64
2022/04/04 00:13:27;;;;;;;10.60;7.30;;;;;;;-2.06;89.20;96969.72;4976041;28;20038;-65
2022/04/04 00:15:55;;;;;;;11.23;7.43;;;;;;;-2.08;89.33;96971.06;4979493;28;20516;-66
2022/04/04 00:18:21;;;;;;;15.13;7.45;;;;;;;-2.09;89.18;96970.25;4973857;28;20042;-65
2022/04/04 00:20:46;;;;;;;10.02;7.78;;;;;;;-2.09;89.14;96966.78;4980592;28;20065;-65
2022/04/04 00:23:13;;;;;;;15.02;8.13;;;;;;;-2.15;89.33;96964.13;4976743;28;20538;-65
2022/04/04 00:25:46;;;;;;;13.00;7.70;;;;;;;-2.17;89.88;96958.22;4987463;28;20068;-65
2022/04/04 00:28:13;;;;;;;11.93;7.82;;;;;;;-2.17;89.38;96955.56;4991247;28;20160;-65
2022/04/04 00:30:39;;;;;;;13.05;7.72;;;;;;;-2.20;90.30;96961.47;4990130;28;20030;-64
2022/04/04 00:33:05;;;;;;;13.45;9.00;;;;;;;-2.17;90.22;96957.44;4994012;28;20047;-63
2022/04/04 00:35:31;;;;;;;12.48;8.48;;;;;;;-2.24;90.75;96960.41;4993958;28;20084;-64
2022/04/04 00:38:00;;;;;;;15.32;9.57;;;;;;;-2.31;91.30;96954.56;4993083;28;20438;-64
2022/04/04 00:40:26;;;;;;;;;;;;;;;-2.27;91.38;96954.81;4976103;28;20030;-64
2022/04/04 00:42:52;;;;;;;13.23;8.70;;;;;;;-2.32;91.51;96950.28;4993744;28;19933;-64
2022/04/04 00:45:18;;;;;;;16.17;8.88;;;;;;;-2.34;91.61;96947.88;4993292;28;20030;-63
2022/04/04 00:47:43;;;;;;;13.15;9.27;;;;;;;-2.38;91.81;96954.84;4991607;28;20030;-64
2022/04/04 00:50:09;;;;;;;13.68;8.75;;;;;;;-2.37;92.11;96953.78;5001781;28;20119;-64
2022/04/04 00:52:35;;;;;;;18.80;9.20;;;;;;;-2.44;92.54;96953.28;5011446;28;20040;-63
2022/04/04 00:55:00;;;;;;;14.32;8.95;;;;;;;-2.49;92.98;96945.25;5012782;28;20038;-63
2022/04/04 00:57:27;;;;;;;16.90;8.52;;;;;;;-2.52;93.39;96943.13;5012569;28;20025;-64
2022/04/04 00:59:53;;;;;;;14.20;8.68;;;;;;;-2.52;93.73;96940.44;5012344;28;20034;-64
2022/04/04 01:02:19;;;;;;;13.65;9.00;;;;;;;-2.57;93.65;96937.81;4997822;28;20052;-64
2022/04/04 01:04:44;;;;;;;13.88;8.63;;;;;;;-2.62;93.90;96930.59;4993154;28;20038;-64
2022/04/04 01:07:10;;;;;;;13.48;8.35;;;;;;;-2.60;93.24;96927.63;4992280;28;20585;-63
2022/04/04 01:09:35;;;;;;;12.60;8.38;;;;;;;-2.70;93.02;96928.50;4993333;28;20037;-64
2022/04/04 01:12:12;;;;;;;13.75;8.52;;;;;;;-2.69;93.34;96927.41;4991325;28;20125;-64
2022/04/04 01:14:39;;;;;;;14.52;8.40;;;;;;;-2.70;93.50;96925.81;4992323;28;20046;-64
2022/04/04 01:17:06;;;;;;;13.90;8.60;;;;;;;-2.79;93.38;96925.59;4984421;28;20589;-64
2022/04/04 01:19:32;;;;;;;14.98;8.60;;;;;;;-2.84;93.06;96927.47;4992492;28;20398;-65
2022/04/04 01:21:57;;;;;;;15.65;8.95;;;;;;;-2.87;92.57;96923.47;4992313;28;20113;-64
2022/04/04 01:24:23;;;;;;;14.38;9.35;;;;;;;-2.81;91.90;96927.75;4991604;28;20109;-64
2022/04/04 01:26:50;;;;;;;12.82;8.23;;;;;;;-2.82;91.38;96912.72;4992408;28;20030;-64
2022/04/04 01:29:17;;;;;;;13.30;8.70;;;;;;;-2.84;91.54;96912.19;4992439;28;20042;-65
2022/04/04 01:31:42;;;;;;;15.02;7.40;;;;;;;-2.88;91.89;96919.97;4991127;28;20030;-62
2022/04/04 01:34:07;;;;;;;13.40;8.32;;;;;;;-2.91;91.59;96911.69;4992017;28;20438;-63
2022/04/04 01:36:33;;;;;;;11.40;7.97;;;;;;;-2.90;92.49;96908.72;4990495;28;20041;-64
2022/04/04 01:38:59;;;;;;;16.77;7.75;;;;;;;-2.92;91.97;96915.44;4991178;28;20479;-63
2022/04/04 01:41:25;;;;;;;12.70;6.85;;;;;;;-2.97;91.59;96916.25;4992082;28;20471;-64
2022/04/04 01:43:51;;;;;;;14.35;7.75;;;;;;;-3.00;90.39;96914.13;4992188;28;20030;-64
2022/04/04 01:46:26;;;;;;;12.45;7.53;;;;;;;-3.07;89.73;96903.69;4991557;28;20041;-64
2022/04/04 01:48:53;;;;;;;12.68;6.53;;;;;;;-3.11;89.49;96918.72;4990795;28;20494;-63
2022/04/04 01:51:19;;;;;;;12.98;6.55;;;;;;;-3.09;90.65;96913.09;4992291;28;20522;-64
2022/04/04 01:53:45;;;;;;;11.20;6.43;;;;;;;-2.98;91.21;96913.84;4992103;28;20035;-64
2022/04/04 01:56:11;;;;;;;10.57;6.80;;;;;;;-3.05;91.57;96914.13;4992980;28;20475;-64
2022/04/04 01:58:38;;;;;;;15.10;7.07;;;;;;;-3.03;92.22;96919.22;4992745;28;20050;-64
2022/04/04 02:01:11;;;;;;;11.25;6.97;;;;;;;-2.91;92.84;96919.72;4992121;28;20034;-64
2022/04/04 02:03:38;;;;;;;9.18;5.97;;;;;;;-2.79;93.19;96916.72;4991754;28;20040;-63
2022/04/04 02:06:03;;;;;;;10.98;6.40;;;;;;;-2.79;92.62;96916.72;4991948;28;20387;-64
2022/04/04 02:08:30;;;;;;;11.32;6.25;;;;;;;-2.82;92.62;96910.03;4990785;28;20030;-64
2022/04/04 02:10:55;;;;;;;10.18;6.15;;;;;;;-2.80;92.50;96913.25;4991931;28;20023;-64
2022/04/04 02:13:25;;;;;;;12.57;6.32;;;;;;;-2.86;91.48;96908.16;4992203;28;20037;-64
2022/04/04 02:15:54;;;;;;;;;;;;;;;-2.99;91.37;96910.38;4974092;28;20062;-64
2022/04/04 02:18:20;;;;;;;10.23;5.65;;;;;;;-3.11;90.27;96910.69;4991938;28;20378;-64
2022/04/04 02:20:46;;;;;;;9.93;6.38;;;;;;;-3.14;90.93;96902.38;4990478;28;20046;-64
2022/04/04 02:23:12;;;;;;;10.45;5.85;;;;;;;-3.25;91.57;96915.00;4991884;28;20030;-65
2022/04/04 02:25:38;;;;;;;8.50;5.32;;;;;;;-3.42;91.74;96903.78;4992095;28;20045;-64
2022/04/04 02:28:04;;;;;;;9.27;5.90;;;;;;;-3.46;92.57;96900.84;4997736;28;20034;-64
2022/04/04 02:30:29;;;;;;;12.25;6.10;;;;;;;-3.52;93.87;96908.09;4977407;28;20386;-64
2022/04/04 02:32:55;;;;;;;13.55;5.78;;;;;;;-3.62;93.53;96910.00;4993361;28;20109;-64
2022/04/04 02:35:20;;;;;;;12.65;6.50;;;;;;;-3.63;95.09;96903.84;4991573;28;20530;-64
2022/04/04 02:37:47;;;;;;;10.52;6.18;;;;;;;-3.50;96.36;96905.16;4991855;28;20037;-64
2022/04/04 02:40:13;;;;;;;13.73;7.22;;;;;;;-3.38;96.50;96905.66;4991566;28;20030;-65
2022/04/04 02:42:39;;;;;;;10.43;6.53;;;;;;;-3.30;95.64;96899.75;4992110;28;20061;-64
2022/04/04 02:45:06;;;;;;;10.00;5.82;;;;;;;-3.31;96.37;96900.03;4992057;28;20121;-64
2022/04/04 02:47:31;;;;;;;10.75;5.90;;;;;;;-3.23;95.67;96904.81;4990814;28;20077;-64
2022/04/04 02:49:56;;;;;;;10.98;6.10;;;;;;;-3.28;94.95;96904.81;4991958;28;20061;-64
2022/04/04 02:52:22;;;;;;;8.68;5.93;;;;;;;-3.27;95.41;96899.19;4992511;28;20026;-65
2022/04/04 02:54:47;;;;;;;9.68;5.75;;;;;;;-3.27;95.71;96899.19;4992619;28;20037;-63
2022/04/04 02:57:16;;;;;;;10.18;6.05;;;;;;;-3.33;94.79;96902.16;4991901;28;20070;-65
2022/04/04 02:59:42;;;;;;;12.00;5.75;;;;;;;-3.56;94.29;96901.69;4999367;28;20050;-65
2022/04/04 03:02:07;;;;;;;9.15;5.35;;;;;;;-3.82;94.12;96905.47;5011795;28;20029;-63
2022/04/04 03:04:32;;;;;;;7.93;5.20;;;;;;;-4.06;94.83;96897.97;5002093;28;20037;-66
2022/04/04 03:07:00;;;;;;;12.07;5.53;;;;;;;-4.22;98.24;96905.19;5004354;28;20034;-64
2022/04/04 03:09:25;;;;;;;10.30;5.90;;;;;;;-4.29;99.58;96897.41;4999287;28;20034;-64
2022/04/04 03:11:50;;;;;;;9.85;6.03;;;;;;;-4.19;100.00;96899.31;5005512;28;20150;-65
2022/04/04 03:14:16;;;;;;;11.75;5.80;;;;;;;-4.29;100.00;96893.94;5001697;28;20053;-65
2022/04/04 03:16:41;;;;;;;9.73;5.95;;;;;;;-4.45;99.06;96891.28;5003707;28;20026;-64
2022/04/04 03:19:07;;;;;;;11.30;5.72;;;;;;;-4.59;100.00;96884.81;5010231;28;20053;-64
2022/04/04 03:21:32;;;;;;;10.95;6.30;;;;;;;-4.72;100.00;96882.66;5026907;22;20046;-65
2022/04/04 03:23:59;;;;;;;11.13;6.13;;;;;;;-4.77;100.00;96882.63;4999959;28;20042;-64
2022/04/04 03:26:25;;;;;;;10.38;6.20;;;;;;;-4.81;100.00;96887.69;5003100;28;20057;-64
2022/04/04 03:28:50;;;;;;;9.55;6.07;;;;;;;-4.78;100.00;96876.50;4986984;28;20042;-65
2022/04/04 03:31:16;;;;;;;8.80;5.60;;;;;;;-4.71;100.00;96874.38;5015152;28;20113;-65
2022/04/04 03:33:43;;;;;;;10.82;5.85;;;;;;;-4.72;100.00;96880.75;5007370;28;20459;-64
2022/04/04 03:36:10;;;;;;;10.27;6.13;;;;;;;-4.72;100.00;96874.63;5005986;28;20034;-65
2022/04/04 03:38:35;;;;;;;9.40;6.15;;;;;;;-4.67;100.00;96877.31;5003620;28;20100;-64
2022/04/04 03:41:01;;;;;;;11.85;6.63;;;;;;;-4.38;100.00;96874.94;4997269;28;20030;-65
2022/04/04 03:43:26;;;;;;;10.48;5.65;;;;;;;-4.13;100.00;96876.03;5006471;28;20168;-64
2022/04/04 03:45:52;;;;;;;10.25;6.30;;;;;;;-3.86;100.00;96873.09;5003779;28;20038;-64
2022/04/04 03:48:18;;;;;;;11.65;5.78;;;;;;;-3.80;100.00;96873.88;4999074;28;20112;-64
2022/04/04 03:50:45;;;;;;;11.40;6.30;;;;;;;-3.70;100.00;96879.22;5004169;28;20038;-65
2022/04/04 03:53:11;;;;;;;11.02;6.22;;;;;;;-3.76;100.00;96874.94;5003745;28;20034;-64
2022/04/04 03:55:39;;;;;;;10.77;6.50;;;;;;;-3.89;100.00;96877.13;5002527;28;20030;-65
2022/04/04 03:58:08;;;;;;;11.23;6.55;;;;;;;-3.95;100.00;96880.06;5014402;28;20029;-64
2022/04/04 04:00:34;;;;;;;20.65;11.27;;;;;;;-4.05;100.00;96876.31;5002738;28;20038;-64
2022/04/04 04:03:00;;;;;;;22.80;9.88;;;;;;;-4.04;100.00;96875.22;5002077;28;20140;-64
2022/04/04 04:05:25;;;;;;;13.18;7.45;;;;;;;-3.99;100.00;96876.31;5004545;28;20461;-63
2022/04/04 04:07:52;;;;;;;13.50;8.02;;;;;;;-3.99;100.00;96869.09;5004676;28;20033;-64
2022/04/04 04:10:18;;;;;;;15.38;9.52;;;;;;;-4.03;100.00;96874.16;5001036;28;20060;-64
2022/04/04 04:12:46;;;;;;;21.50;10.75;;;;;;;-3.89;100.00;96873.59;4994343;28;20076;-63
2022/04/04 04:15:21;;;;;;;33.78;16.27;;;;;;;-3.89;100.00;96870.94;4992162;28;20029;-65
2022/04/04 04:17:49;;;;;;;38.38;17.65;;;;;;;-3.60;100.00;96863.16;4999586;28;20395;-65
2022/04/04 04:20:22;;;;;;;43.33;19.27;;;;;;;-3.36;100.00;96875.94;5003249;28;20034;-64
2022/04/04 04:22:55;;;;;;;52.15;21.33;;;;;;;-3.32;100.00;96869.75;5005176;28;20463;-63
2022/04/04 04:25:27;;;;;;;60.40;25.95;;;;;;;-3.27;100.00;96872.41;5005488;28;20058;-65
2022/04/04 04:27:54;;;;;;;80.93;31.08;;;;;;;-3.10;100.00;96884.69;5002323;28;20026;-63
2022/04/04 04:30:19;;;;;;;79.90;33.60;;;;;;;-3.01;100.00;96883.03;5000652;28;20034;-65
2022/04/04 04:32:48;;;;;;;82.63;33.75;;;;;;;-2.99;100.00;96878.22;5011184;28;20030;-65
2022/04/04 04:35:15;;;;;;;85.50;34.07;;;;;;;-2.90;100.00;96886.47;5015637;28;20026;-65
2022/04/04 04:37:41;;;;;;;83.05;33.03;;;;;;;-2.76;100.00;96884.00;5017879;28;20044;-64
2022/04/04 04:40:08;;;;;;;82.82;33.78;;;;;;;-2.78;100.00;96886.94;5016882;28;20034;-66
2022/04/04 04:42:34;;;;;;;78.68;31.83;;;;;;;-2.79;100.00;96881.84;5004349;28;20117;-65
2022/04/04 04:45:03;;;;;;;69.57;28.77;;;;;;;-2.86;100.00;96881.34;5007288;28;20034;-66
2022/04/04 04:47:29;;;;;;;64.55;27.42;;;;;;;-3.04;100.00;96886.28;5009136;28;20053;-65
2022/04/04 04:49:54;;;;;;;57.47;26.15;;;;;;;-3.01;100.00;96882.22;5002426;28;20124;-65
2022/04/04 04:52:20;;;;;;;54.85;25.98;;;;;;;-2.69;100.00;96879.13;5012614;28;20026;-65
2022/04/04 04:54:45;;;;;;;60.05;24.33;;;;;;;-2.56;100.00;96875.03;5013947;28;20034;-64
2022/04/04 04:57:10;;;;;;;51.28;22.23;;;;;;;-2.51;100.00;96875.00;5008391;28;20673;-64
2022/04/04 04:59:36;;;;;;;46.28;20.58;;;;;;;-2.81;100.00;96874.13;5001415;28;20388;-64
2022/04/04 05:02:01;;;;;;;53.65;21.73;;;;;;;-2.93;100.00;96887.03;4999220;28;20038;-65
2022/04/04 05:04:27;;;;;;;45.05;21.67;;;;;;;-2.98;100.00;96876.34;5005436;28;20123;-65
2022/04/04 05:06:52;;;;;;;46.45;20.23;;;;;;;-3.00;100.00;96875.81;5013248;28;20495;-65
2022/04/04 05:09:18;;;;;;;46.83;20.45;;;;;;;-3.02;100.00;96884.13;5013597;28;20068;-65
2022/04/04 05:11:44;;;;;;;43.33;20.50;;;;;;;-2.93;100.00;96873.63;4988044;28;20026;-66
2022/04/04 05:14:16;;;;;;;44.00;21.02;;;;;;;-3.04;100.00;96872.88;5004033;28;20042;-65
2022/04/04 05:16:45;;;;;;;42.38;19.92;;;;;;;-3.08;100.00;96878.00;5013066;28;20026;-66
2022/04/04 05:19:12;;;;;;;37.92;19.30;;;;;;;-3.05;100.00;96883.88;5006375;28;20022;-64
2022/04/04 05:21:38;;;;;;;37.65;18.52;;;;;;;-2.85;100.00;96886.44;5003457;28;20057;-65
2022/04/04 05:24:05;;;;;;;34.15;17.30;;;;;;;-2.65;100.00;96887.44;5003051;28;20042;-66
2022/04/04 05:26:31;;;;;;;40.10;16.83;;;;;;;-2.46;100.00;96887.59;5002623;28;20033;-66
2022/04/04 05:28:57;;;;;;;30.33;14.20;;;;;;;-2.28;100.00;96895.00;5006254;28;20402;-64
2022/04/04 05:31:23;;;;;;;25.98;12.13;;;;;;;-2.27;100.00;96895.78;5014184;28;20398;-66
2022/04/04 05:33:48;;;;;;;28.33;11.18;;;;;;;-2.13;100.00;96891.38;5012547;28;20046;-65
2022/04/04 05:36:14;;;;;;;26.33;11.38;;;;;;;-1.92;98.43;96892.84;5013340;28;20037;-65
2022/04/04 05:38:39;;;;;;;21.10;10.27;;;;;;;-1.82;97.80;96891.97;5006204;28;20038;-66
2022/04/04 05:41:04;;;;;;;20.73;10.00;;;;;;;-1.72;97.21;96891.06;5003518;28;20051;-66
2022/04/04 05:43:30;;;;;;;27.10;10.80;;;;;;;-1.60;96.44;96899.53;5001410;28;20026;-63
2022/04/04 05:45:55;;;;;;;22.00;9.23;;;;;;;-1.50;95.36;96897.84;5027632;28;20034;-65
2022/04/04 05:48:21;;;;;;;16.23;8.80;;;;;;;-1.39;95.20;96900.16;5003956;28;20034;-65
2022/04/04 05:50:46;;;;;;;15.55;8.32;;;;;;;-1.38;92.92;96895.56;5006663;28;20109;-64
2022/04/04 05:53:11;;;;;;;16.20;8.60;;;;;;;-1.37;92.64;96910.59;4993174;28;20058;-64
2022/04/04 05:55:37;;;;;;;18.05;9.00;;;;;;;-1.38;91.17;96914.38;4992156;28;20037;-64
2022/04/04 05:58:02;;;;;;;17.83;8.32;;;;;;;-1.29;90.98;96920.75;4993235;28;20038;-64
2022/04/04 06:00:28;;;;;;;17.60;8.65;;;;;;;-1.13;89.84;96909.81;4993051;28;20031;-64
2022/04/04 06:02:54;;;;;;;18.00;7.95;;;;;;;-0.93;90.06;96900.75;5000133;28;20026;-65
2022/04/04 06:05:19;;;;;;;13.48;7.97;;;;;;;-1.36;92.87;96914.91;5006210;28;20030;-66
2022/04/04 06:07:45;;;;;;;19.23;7.95;;;;;;;-1.57;95.75;96908.91;5012472;28;20045;-64
2022/04/04 06:10:11;;;;;;;13.25;7.70;;;;;;;-1.57;96.60;96915.09;5015236;28;20034;-65
2022/04/04 06:12:38;;;;;;;18.83;8.18;;;;;;;-1.79;97.18;96917.44;5013333;28;20034;-66
2022/04/04 06:15:04;;;;;;;20.05;9.63;;;;;;;-1.68;97.83;96916.25;5015123;28;20048;-65
2022/04/04 06:17:30;;;;;;;18.60;8.77;;;;;;;-1.63;95.70;96920.78;5007803;28;20034;-65
2022/04/04 06:19:55;;;;;;;17.05;9.30;;;;;;;-1.28;95.28;96918.84;4997882;28;20035;-64
2022/04/04 06:22:22;;;;;;;14.93;7.53;;;;;;;-1.07;93.02;96922.91;5001717;28;20104;-65
2022/04/04 06:24:49;;;;;;;11.05;7.03;;;;;;;-1.17;91.92;96921.16;5010477;28;20030;-65
2022/04/04 06:27:15;;;;;;;10.55;7.03;;;;;;;-0.90;91.24;96917.09;5004183;28;20399;-64
2022/04/04 06:29:41;;;;;;;10.18;6.32;;;;;;;-0.55;87.25;96920.44;4999692;28;20383;-66
2022/04/04 06:32:07;;;;;;;11.13;6.68;;;;;;;-0.40;86.46;96914.84;5012280;28;20061;-66
2022/04/04 06:34:33;;;;;;;13.52;5.57;;;;;;;-0.38;84.29;96922.63;5021730;28;20100;-65
2022/04/04 06:36:58;;;;;;;9.38;5.72;;;;;;;-0.63;83.78;96924.56;5025689;28;20072;-65
2022/04/04 06:39:24;;;;;;;16.88;9.88;;;;;;;-1.12;88.24;96914.13;5023690;28;20042;-64
2022/04/04 06:41:51;;;;;;;20.38;11.63;;;;;;;-1.17;91.69;96917.66;4999455;28;20034;-65
2022/04/04 06:44:17;;;;;;;16.90;9.65;;;;;;;-0.96;89.69;96912.84;5006305;28;20109;-65
2022/04/04 06:46:43;;;;;;;17.52;10.40;;;;;;;-1.52;94.03;96916.13;5015930;28;20109;-63
2022/04/04 06:49:08;;;;;;;20.25;9.73;;;;;;;-1.44;94.29;96920.88;5017176;28;20034;-64
2022/04/04 06:51:35;;;;;;;24.73;14.77;;;;;;;-1.49;91.99;96915.56;5020151;28;20030;-65
2022/04/04 06:54:03;;;;;;;10.40;6.35;;;;;;;-1.48;89.68;96914.47;5013913;28;20030;-63
2022/04/04 06:56:29;;;;;;;116.55;65.57;;;;;;;-1.45;90.76;96913.91;5011314;28;20029;-65
2022/04/04 06:58:55;;;;;;;24.25;14.88;;;;;;;-0.52;90.34;96913.66;5004398;28;20061;-65
2022/04/04 07:01:20;;;;;;;11.70;7.05;;;;;;;0.03;88.12;96907.78;5000671;28;20113;-64
2022/04/04 07:03:46;;;;;;;12.32;6.40;;;;;;;0.52;83.83;96911.81;4986385;28;20042;-65
2022/04/04 07:06:12;;;;;;;18.55;9.85;;;;;;;0.26;86.20;96917.63;4977339;28;20082;-65
2022/04/04 07:08:38;;;;;;;11.52;6.47;;;;;;;0.93;80.62;96905.69;5004010;28;20037;-66
2022/04/04 07:11:05;;;;;;;10.35;5.97;;;;;;;1.67;78.82;96918.22;5011599;28;20423;-66
2022/04/04 07:13:34;;;;;;;13.10;7.68;;;;;;;2.34;74.09;96914.81;5005626;28;20030;-64
2022/04/04 07:15:59;;;;;;;15.80;8.82;;;;;;;3.42;70.82;96906.53;5007025;28;20052;-66
2022/04/04 07:18:24;;;;;;;11.82;7.28;;;;;;;4.68;62.21;96910.22;5015706;28;20467;-64
2022/04/04 07:20:50;;;;;;;12.13;6.80;;;;;;;6.42;53.65;96915.81;5003002;28;20032;-64
2022/04/04 07:23:16;;;;;;;10.13;5.45;;;;;;;6.46;52.20;96909.41;5004869;28;20029;-66
2022/04/04 07:25:41;;;;;;;11.30;5.22;;;;;;;6.78;49.69;96917.09;5001750;28;20376;-66
2022/04/04 07:28:08;;;;;;;9.20;4.75;;;;;;;7.04;49.15;96914.88;5001676;28;20364;-66
2022/04/04 07:30:33;;;;;;;8.43;5.00;;;;;;;7.82;44.64;96915.78;4996432;28;20037;-66
2022/04/04 07:33:01;;;;;;;8.02;4.88;;;;;;;7.59;44.51;96915.47;4982358;28;20054;-66
2022/04/04 07:35:27;;;;;;;8.65;5.03;;;;;;;9.35;40.55;96908.66;4971124;28;20038;-67
2022/04/04 07:37:53;;;;;;;8.85;5.40;;;;;;;7.28;40.64;96908.66;4992948;28;20183;-67
2022/04/04 07:40:20;;;;;;;5.57;3.90;;;;;;;9.50;38.02;96905.09;4983900;28;20439;-66
2022/04/04 07:42:46;;;;;;;7.97;3.90;;;;;;;10.09;37.00;96905.25;4988308;28;20582;-66
2022/04/04 07:45:16;;;;;;;9.15;4.03;;;;;;;10.46;37.83;96905.66;4986076;28;20042;-66
2022/04/04 07:47:43;;;;;;;6.70;4.60;;;;;;;10.89;35.72;96901.00;4990574;28;20112;-66
2022/04/04 07:50:11;;;;;;;9.90;3.88;;;;;;;11.12;35.60;96902.19;4998511;28;20056;-66
2022/04/04 07:52:37;;;;;;;7.15;4.07;;;;;;;10.74;35.62;96903.84;5001654;28;20046;-67
2022/04/04 07:55:04;;;;;;;8.07;4.35;;;;;;;11.32;34.50;96902.91;4965165;28;20037;-66
2022/04/04 07:57:29;;;;;;;9.52;4.10;;;;;;;12.04;32.80;96907.56;4994449;28;20187;-66
2022/04/04 07:59:56;;;;;;;8.35;4.18;;;;;;;13.05;30.87;96893.03;5002240;28;20096;-66
2022/04/04 08:02:21;;;;;;;6.35;3.97;;;;;;;13.14;30.91;96893.53;4982132;28;20841;-66
2022/04/04 08:04:47;;;;;;;6.22;3.65;;;;;;;13.79;29.09;96883.06;5000742;28;20050;-65
2022/04/04 08:07:13;;;;;;;8.15;3.80;;;;;;;13.10;29.64;96884.44;4991114;28;20042;-65
2022/04/04 08:09:38;;;;;;;7.85;4.20;;;;;;;13.11;29.75;96879.75;4988889;28;20053;-63
2022/04/04 08:12:04;;;;;;;8.80;4.13;;;;;;;12.80;29.66;96879.03;4998331;28;20042;-66
2022/04/04 08:14:29;;;;;;;6.30;4.00;;;;;;;11.73;31.69;96879.25;5002515;28;20046;-65
2022/04/04 08:16:55;;;;;;;5.90;4.20;;;;;;;10.56;34.64;96882.38;5002276;28;20128;-66
2022/04/04 08:19:20;;;;;;;8.02;4.13;;;;;;;10.71;34.57;96880.69;4969228;28;20038;-65
2022/04/04 08:21:46;;;;;;;6.15;4.40;;;;;;;9.63;34.92;96872.97;4980865;28;20806;-65
2022/04/04 08:24:13;;;;;;;8.90;5.05;;;;;;;10.24;34.39;96870.75;4971512;28;20042;-65
2022/04/04 08:26:39;;;;;;;9.60;4.40;;;;;;;9.87;37.97;96868.44;4974655;28;20043;-66
2022/04/04 08:29:05;;;;;;;7.53;4.82;;;;;;;10.54;36.57;96864.72;4986568;28;20117;-64
2022/04/04 08:31:31;;;;;;;7.30;4.93;;;;;;;9.93;36.60;96867.00;4967064;28;20085;-65
2022/04/04 08:33:57;;;;;;;8.18;4.57;;;;;;;10.36;34.50;96867.91;4960880;28;20074;-65
2022/04/04 08:36:22;;;;;;;6.32;4.22;;;;;;;9.37;35.12;96868.09;4986273;28;20508;-65
2022/04/04 08:38:47;;;;;;;8.48;4.47;;;;;;;9.97;36.07;96856.91;4971013;28;20093;-62
2022/04/04 08:41:13;;;;;;;8.02;4.32;;;;;;;8.81;40.40;96863.59;4969253;28;20039;-67
2022/04/04 08:43:43;;;;;;;8.73;4.90;;;;;;;9.21;38.63;96857.16;4977844;28;20046;-66
2022/04/04 08:46:09;;;;;;;6.68;4.68;;;;;;;9.53;37.78;96859.88;4990445;28;20495;-64
2022/04/04 08:48:37;;;;;;;10.43;4.78;;;;;;;8.29;39.49;96857.13;4970687;28;20046;-62
2022/04/04 08:51:05;;;;;;;8.85;4.88;;;;;;;8.47;39.82;96870.50;4972962;28;20120;-67
2022/04/04 08:53:31;;;;;;;9.18;4.85;;;;;;;9.84;35.63;96859.00;4975273;28;20149;-64
2022/04/04 08:55:57;;;;;;;12.27;5.18;;;;;;;9.33;37.21;96861.75;4973359;28;20038;-64
2022/04/04 08:58:25;;;;;;;12.23;6.60;;;;;;;8.74;39.73;96855.22;4969291;28;20283;-65
2022/04/04 09:00:50;;;;;;;10.80;6.15;;;;;;;8.10;40.49;96860.47;4976236;28;20044;-66
2022/04/04 09:03:22;;;;;;;12.40;8.30;;;;;;;8.99;39.98;96855.84;4965725;28;20066;-66
2022/04/04 09:05:55;;;;;;;11.10;7.22;;;;;;;10.02;37.88;96858.59;4977974;28;20134;-65
2022/04/04 09:08:21;;;;;;;9.05;5.80;;;;;;;10.07;37.64;96866.50;4965578;28;20043;-65
2022/04/04 09:10:50;;;;;;;11.88;6.03;;;;;;;9.04;40.87;96847.41;4974081;28;20046;-68
2022/04/04 09:13:18;;;;;;;12.80;6.73;;;;;;;7.78;44.16;96859.56;4964447;28;20039;-64
2022/04/04 09:15:50;;;;;;;10.82;5.72;;;;;;;9.00;42.94;96849.22;4969069;28;20297;-64
2022/04/04 09:18:16;;;;;;;17.17;9.32;;;;;;;8.80;41.58;96846.41;4974715;28;20042;-66
2022/04/04 09:20:49;;;;;;;12.02;7.70;;;;;;;8.04;43.53;96851.75;4986497;28;20050;-65
2022/04/04 09:23:15;;;;;;;13.30;6.88;;;;;;;6.72;47.22;96862.06;4970306;28;20038;-66
2022/04/04 09:25:40;;;;;;;11.25;7.55;;;;;;;6.50;47.92;96857.81;4974908;28;20034;-65
2022/04/04 09:28:18;;;;;;;14.15;7.85;;;;;;;6.00;49.83;96845.16;4967830;28;20133;-64
2022/04/04 09:30:47;;;;;;;17.65;8.60;;;;;;;5.16;53.13;96841.22;4973163;28;20042;-64
2022/04/04 09:33:13;;;;;;;13.02;8.18;;;;;;;5.08;53.99;96842.06;4967039;28;20553;-65
2022/04/04 09:35:46;;;;;;;13.57;8.02;;;;;;;5.06;54.58;96828.03;4973743;28;20049;-65
2022/04/04 09:38:16;;;;;;;16.40;8.15;;;;;;;5.00;54.64;96833.97;4963086;28;20034;-64
2022/04/04 09:40:42;;;;;;;;;;;;;;;5.47;53.85;96831.91;4973853;28;20046;-63
2022/04/04 09:43:07;;;;;;;13.65;8.00;;;;;;;5.34;54.04;96827.53;4972235;28;19914;-66
2022/04/04 09:45:33;;;;;;;19.90;11.55;;;;;;;5.20;55.28;96827.00;4991463;28;20117;-66
2022/04/04 09:48:03;;;;;;;13.60;8.10;;;;;;;4.73;56.15;96817.78;4980902;28;20112;-64
2022/04/04 09:50:41;;;;;;;14.57;8.75;;;;;;;5.01;55.88;96816.56;4968712;28;20046;-63
2022/04/04 09:53:09;;;;;;;13.68;8.50;;;;;;;5.45;55.33;96817.09;4987376;28;20042;-64
2022/04/04 09:55:37;;;;;;;14.48;8.27;;;;;;;5.77;54.14;96810.13;4976153;28;20571;-64
2022/04/04 09:58:09;;;;;;;16.60;9.45;;;;;;;5.30;56.07;96807.59;4975613;28;20062;-66
2022/04/04 10:00:37;;;;;;;16.08;9.27;;;;;;;5.59;54.83;96814.91;4966579;28;20104;-63
2022/04/04 10:03:05;;;;;;;13.43;9.25;;;;;;;5.24;55.31;96803.47;4969208;28;20552;-66
2022/04/04 10:05:31;;;;;;;13.43;8.05;;;;;;;6.16;53.63;96799.91;4968886;28;20492;-65
2022/04/04 10:07:57;;;;;;;11.80;7.35;;;;;;;6.10;51.83;96791.16;4973454;28;20050;-64
2022/04/04 10:10:28;;;;;;;12.50;6.93;;;;;;;6.37;51.24;96786.22;4968028;28;20174;-64
2022/04/04 10:12:54;;;;;;;11.05;7.60;;;;;;;6.87;49.65;96789.81;4972967;28;20069;-65
2022/04/04 10:15:21;;;;;;;13.50;8.10;;;;;;;6.39;50.86;96781.28;4970301;28;20468;-66
2022/04/04 10:17:49;;;;;;;11.48;7.75;;;;;;;5.97;49.32;96791.44;4965526;28;20100;-66
2022/04/04 10:20:15;;;;;;;11.55;7.57;;;;;;;6.29;49.36;96771.59;4977225;28;20034;-65
2022/04/04 10:22:40;;;;;;;12.77;8.32;;;;;;;7.12;47.28;96765.31;4973901;28;20045;-64
2022/04/04 10:25:07;;;;;;;10.02;7.32;;;;;;;7.75;46.47;96767.53;4979103;28;20042;-65
2022/04/04 10:27:36;;;;;;;12.82;7.35;;;;;;;7.60;46.37;96780.75;4985502;28;20042;-66
2022/04/04 10:30:07;;;;;;;10.73;7.33;;;;;;;6.93;47.75;96763.16;4972280;28;20034;-67
2022/04/04 10:32:33;;;;;;;11.35;7.93;;;;;;;7.22;47.29;96771.09;4981498;28;20297;-64
2022/04/04 10:35:09;;;;;;;13.27;8.00;;;;;;;7.61;47.05;96762.47;4981835;28;20763;-65
2022/04/04 10:37:43;;;;;;;13.95;7.47;;;;;;;6.83;47.66;96742.63;4978750;28;20034;-67
2022/04/04 10:40:19;;;;;;;16.15;8.43;;;;;;;6.72;47.71;96766.78;4973186;28;20037;-66
2022/04/04 10:42:46;;;;;;;12.75;7.45;;;;;;;7.31;46.11;96748.34;4982129;28;20038;-66
2022/04/04 10:45:13;;;;;;;10.18;7.03;;;;;;;8.16;45.00;96755.44;4980543;28;20419;-64
2022/04/04 10:47:42;;;;;;;10.15;6.80;;;;;;;8.11;46.07;96752.16;4979364;28;20061;-65
2022/04/04 10:50:25;;;;;;;11.55;7.40;;;;;;;8.51;42.40;96746.59;4966808;28;20038;-66
2022/04/04 10:52:58;;;;;;;11.13;8.05;;;;;;;8.00;45.30;96743.69;4982638;28;20046;-66
2022/04/04 10:55:24;;;;;;;12.18;8.10;;;;;;;7.14;47.79;96742.03;4971375;28;20572;-65
2022/04/04 10:57:52;;;;;;;10.70;7.65;;;;;;;6.98;48.45;96735.69;4975178;28;20039;-65
2022/04/04 11:00:18;;;;;;;11.30;7.72;;;;;;;7.45;47.23;96735.97;4966359;28;20031;-67
2022/04/04 11:02:44;;;;;;;12.93;8.00;;;;;;;7.60;47.48;96730.91;4974672;28;20039;-65
2022/04/04 11:08:05;;;;;;;11.15;8.35;;;;;;;8.09;47.41;96719.78;4981890;28;20402;-65
2022/04/04 11:10:40;;;;;;;14.60;8.45;;;;;;;7.80;47.37;96718.22;4976026;28;20487;-65
2022/04/04 11:13:08;;;;;;;13.85;8.68;;;;;;;7.68;48.47;96710.88;5011174;23;20105;-67
2022/04/04 11:15:41;;;;;;;13.73;9.05;;;;;;;7.62;51.23;96709.56;5008097;28;20053;-65
2022/04/04 11:18:06;;;;;;;13.90;9.43;;;;;;;7.77;48.85;96706.06;5003351;28;20068;-66
2022/04/04 11:20:32;;;;;;;12.73;9.15;;;;;;;7.64;48.52;96699.09;5007627;28;20132;-67
2022/04/04 11:23:11;;;;;;;14.52;9.43;;;;;;;7.76;48.12;96692.78;5006427;28;20033;-67
2022/04/04 11:25:49;;;;;;;17.98;8.82;;;;;;;6.93;47.82;96693.16;5001904;28;20045;-68
2022/04/04 11:28:15;;;;;;;12.90;8.45;;;;;;;7.22;47.96;96686.63;5005566;28;20525;-65